• Join FlightAware (Why Join?)
  • Login
  • US Flag 
09:41PM EDT


 

Airport Tracker/Info


-or-


 

Live Flight TrackerFlight Track Log ✈ SWA2353 ✈ 12-May-2013 ✈ KMDW - KSTL

Flight Track Log - Related Links

Times and Time Zones

All times are in EDT time to prevent confusion due to time zone crossing. See the SWA2353 flight status page for this flight to view local times or setup timezone preferences in your user account.

Time Position Orientation Groundspeed Altitude Reporting Facility
EDT Latitude Longitude Course Direction KTS MPH feet Rate Location/Type
10:01PM 41.7833 -87.7000 196° South 197 227 2,800  Level Chicago TRACON
10:03PM 41.7272 -87.6097 130° Southeast 235 270 5,900 1,260 Climbing Chicago Center
10:04PM 41.6514 -87.5994 174° South 273 314 6,000 180 Climbing Chicago Center
10:05PM 41.5986 -87.6567 219° Southwest 263 303 6,300 1,080 Climbing Chicago Center
10:06PM 41.5542 -87.7353 233° Southwest 262 302 8,300 2,580 Climbing Chicago Center
10:07PM 41.3030 -88.0531 196° South  Level FlightAware Approximate
10:07PM 41.5031 -87.8153 230° Southwest 285 328 11,700  Level Chicago Center
10:08PM 41.4192 -87.8503 197° South 313 360 12,100 1,860 Climbing Chicago Center
10:09PM 41.3283 -87.8886 198° South 332 382 15,600 3,780 Climbing Chicago Center
10:10PM 41.2083 -87.9383 197° South 366 421 19,900 3,600 Climbing Chicago Center
10:11PM 41.1044 -87.9825 198° South 383 441 23,000 2,700 Climbing Chicago Center
10:12PM 40.9972 -88.0258 197° South 393 452 25,500 1,440 Climbing Chicago Center
10:13PM 40.8875 -88.0850 202° Southwest 421 484 26,000 240 Climbing Chicago Center
10:14PM 40.7819 -88.1514 205° Southwest 420 483 26,000  Level Chicago Center
10:15PM 40.6769 -88.2142 204° Southwest 417 480 26,000  Level Chicago Center
10:16PM 40.5714 -88.2803 205° Southwest 419 482 26,000  Level Chicago Center
10:17PM 40.4664 -88.3444 205° Southwest 418 481 26,000  Level Chicago Center
10:18PM 40.3611 -88.4081 205° Southwest 418 481 26,000  Level Chicago Center
10:19PM 40.2344 -88.4856 205° Southwest 419 482 26,000  Level Chicago Center
10:20PM 40.1433 -88.5403 205° Southwest 420 483 26,000  Level Chicago Center
10:21PM 40.0342 -88.6053 205° Southwest 425 489 26,000  Level Kansas City Center
10:22PM 39.9269 -88.6681 204° Southwest 422 486 26,000  Level Kansas City Center
10:23PM 39.8247 -88.7392 208° Southwest 416 479 26,000  Level Kansas City Center
10:24PM 39.7367 -88.8322 219° Southwest 407 468 26,000  Level Kansas City Center
10:25PM 39.6467 -88.9261 219° Southwest 410 472 26,000  Level Kansas City Center
10:26PM 39.5525 -89.0222 218° Southwest 422 486 26,000  Level Kansas City Center
10:27PM 39.4575 -89.1208 219° Southwest 433 498 26,000 -1,140 Level Kansas City Center
10:28PM 39.3617 -89.2194 219° Southwest 434 499 23,700 -2,460 Descending Kansas City Center
10:29PM 39.2731 -89.3100 218° Southwest 419 482 21,000 -2,640 Descending Kansas City Center
10:30PM 39.1886 -89.3983 219° Southwest 405 466 18,400 -2,760 Descending Kansas City Center
10:31PM 39.0894 -89.5006 219° Southwest 381 438 15,400 -2,760 Descending Kansas City Center
10:32PM 39.0097 -89.5822 219° Southwest 369 425 12,800 -2,520 Descending Kansas City Center
10:33PM 38.9389 -89.6664 223° Southwest 351 404 10,300 -1,380 Descending Kansas City Center
10:34PM 38.8747 -89.7453 224° Southwest 332 382 10,000 -840 Descending Kansas City Center
10:35PM 38.8211 -89.8156 226° Southwest 299 344 8,600 -1,260 Descending Kansas City Center
10:36PM 38.7658 -89.8800 222° Southwest 281 323 7,500 -840 Descending Kansas City Center
10:38PM 38.7028 -89.9147 203° Southwest 258 297 6,900 -960 Descending Kansas City Center
10:39PM 38.6808 -89.9817 247° West 232 267 5,600 -1,080 Descending Kansas City Center
10:40PM 38.6733 -90.0525 262° West 213 245 4,700 -960 Descending Kansas City Center
10:41PM 38.6667 -90.1206 263° West 202 232 3,700 -840 Descending Kansas City Center
10:42PM 38.6664 -90.1825 270° West 196 226 3,100 -840 Descending Kansas City Center
10:43PM 38.6886 -90.2347 299° West 178 205 2,100 -840 Descending Kansas City Center
10:44PM 38.7133 -90.2892 300° West 161 185 1,500 -600 Descending Kansas City Center
10:45PM 38.7311 -90.3233 304° West 135 155 900 -480 Descending Kansas City Center
10:46PM 38.7483 -90.3567 304° West 130 150 600 -300 Descending Kansas City Center